createdAt,value
2019-03-03T00:01:32.844Z,91872.62
2019-03-03T00:04:22.595Z,91876.91
2019-03-03T00:07:11.825Z,91878.14
2019-03-03T00:10:01.399Z,91877.41
2019-03-03T00:12:50.174Z,91879.97
2019-03-03T00:15:39.168Z,91878.22
2019-03-03T00:18:28.420Z,91886.38
2019-03-03T00:21:18.063Z,91893.75
2019-03-03T00:24:07.451Z,91893.13
2019-03-03T00:26:57.002Z,91892.73
2019-03-03T00:29:46.481Z,91891.81
2019-03-03T00:32:35.780Z,91892.33
2019-03-03T00:35:25.117Z,91892.42
2019-03-03T00:38:36.321Z,91891.85
2019-03-03T00:41:42.944Z,91896.84
2019-03-03T00:44:47.251Z,91899.30
2019-03-03T00:47:58.897Z,91891.55
2019-03-03T00:51:17.183Z,91891.45
2019-03-03T00:54:27.300Z,91893.89
2019-03-03T00:57:26.703Z,91888.08
2019-03-03T01:00:43.245Z,91888.89
2019-03-03T01:04:07.150Z,91891.43
2019-03-03T01:07:23.867Z,91895.11
2019-03-03T01:10:23.563Z,91895.81
2019-03-03T01:13:22.944Z,91896.12
2019-03-03T01:16:18.871Z,91898.45
2019-03-03T01:19:25.594Z,91897.52
2019-03-03T01:22:29.201Z,91900.85
2019-03-03T01:25:18.350Z,91899.61
2019-03-03T01:28:08.135Z,91901.53
2019-03-03T01:30:57.633Z,91901.31
2019-03-03T01:33:46.968Z,91901.02
2019-03-03T01:36:36.168Z,91898.16
2019-03-03T01:39:25.433Z,91897.88
2019-03-03T01:42:14.897Z,91893.35
2019-03-03T01:45:05.141Z,91888.18
2019-03-03T01:47:54.695Z,91889.44
2019-03-03T01:50:43.397Z,91882.59
2019-03-03T01:53:32.833Z,91883.09
2019-03-03T01:56:22.121Z,91889.09
2019-03-03T01:59:11.441Z,91896.06
2019-03-03T02:02:01.068Z,91896.69
2019-03-03T02:04:50.391Z,91899.61
2019-03-03T02:07:39.296Z,91910.48
2019-03-03T02:10:28.667Z,91910.98
2019-03-03T02:13:18.226Z,91910.27
2019-03-03T02:16:07.909Z,91914.13
2019-03-03T02:18:57.616Z,91915.86
2019-03-03T02:21:46.452Z,91916.27
2019-03-03T02:24:35.758Z,91921.20
2019-03-03T02:27:25.805Z,91923.78
2019-03-03T02:30:17.410Z,91932.54
2019-03-03T02:33:06.647Z,91929.84
2019-03-03T02:35:55.671Z,91933.51
2019-03-03T02:38:45.446Z,91940.70
2019-03-03T02:41:34.845Z,91937.45
2019-03-03T02:44:24.125Z,91934.65
2019-03-03T02:47:13.393Z,91936.05
2019-03-03T02:50:03.836Z,91941.88
2019-03-03T02:52:53.208Z,91951.03
2019-03-03T02:55:42.535Z,91955.28
2019-03-03T02:58:31.917Z,91960.04
2019-03-03T03:01:27.913Z,91964.66
2019-03-03T03:04:17.190Z,91969.43
2019-03-03T03:07:28.618Z,91957.62
2019-03-03T03:10:39.368Z,91959.55
2019-03-03T03:13:47.058Z,91958.63
2019-03-03T03:16:45.724Z,91954.16
2019-03-03T03:19:56.719Z,91952.25
2019-03-03T03:22:54.357Z,91945.97
2019-03-03T03:25:54.035Z,91952.59
2019-03-03T03:28:50.520Z,91948.50
2019-03-03T03:32:06.125Z,91955.88
2019-03-03T03:35:00.913Z,91948.30
2019-03-03T03:38:21.444Z,91942.95
2019-03-03T03:41:32.465Z,91942.28
2019-03-03T03:44:27.250Z,91945.54
2019-03-03T03:47:28.027Z,91940.70
2019-03-03T03:50:34.352Z,91948.37
2019-03-03T03:53:32.065Z,91948.87
2019-03-03T03:56:36.605Z,91942.86
2019-03-03T03:59:35.384Z,91952.83
2019-03-03T04:02:42.230Z,91951.34
2019-03-03T04:05:48.344Z,91957.52
2019-03-03T04:09:01.855Z,91953.05
2019-03-03T04:12:15.359Z,91948.03
2019-03-03T04:15:13.554Z,91947.98
2019-03-03T04:18:22.202Z,91952.44
2019-03-03T04:21:36.341Z,91953.27
2019-03-03T04:24:50.318Z,91949.47
2019-03-03T04:27:56.541Z,91957.77
2019-03-03T04:31:11.069Z,91954.73
2019-03-03T04:34:20.558Z,91959.08
2019-03-03T04:37:22.258Z,91957.05
2019-03-03T04:40:35.452Z,91962.70
2019-03-03T04:43:32.246Z,91965.02
2019-03-03T04:46:37.334Z,91961.01
2019-03-03T04:49:44.449Z,91968.53
2019-03-03T04:52:42.299Z,91964.20
2019-03-03T04:55:50.243Z,91965.95
2019-03-03T04:59:04.167Z,91975.61
2019-03-03T05:02:12.093Z,91978.81
2019-03-03T05:05:18.788Z,91970.78
2019-03-03T05:08:31.738Z,91981.45
2019-03-03T05:12:15.207Z,91980.94
2019-03-03T05:15:13.382Z,91979.92
2019-03-03T05:18:30.579Z,91986.17
2019-03-03T05:21:19.211Z,91984.70
2019-03-03T05:24:08.539Z,91987.31
2019-03-03T05:26:58.141Z,91988.91
2019-03-03T05:29:47.255Z,91988.02
2019-03-03T05:32:35.893Z,91992.89
2019-03-03T05:35:26.130Z,91990.84
2019-03-03T05:38:15.761Z,91991.23
2019-03-03T05:41:04.940Z,91993.13
2019-03-03T05:43:54.433Z,91995.46
2019-03-03T05:46:44.099Z,91992.16
2019-03-03T05:49:33.354Z,91992.44
2019-03-03T05:52:22.918Z,91993.51
2019-03-03T05:55:12.474Z,91998.62
2019-03-03T05:58:01.776Z,91999.22
2019-03-03T06:00:51.577Z,92007.49
2019-03-03T06:03:40.995Z,92005.97
2019-03-03T06:06:30.054Z,92015.58
2019-03-03T06:09:19.492Z,92018.28
2019-03-03T06:12:08.510Z,92023.41
2019-03-03T06:14:57.802Z,92025.22
2019-03-03T06:17:47.283Z,92025.48
2019-03-03T06:20:36.256Z,92034.20
2019-03-03T06:23:25.649Z,92043.22
2019-03-03T06:26:14.692Z,92037.84
2019-03-03T06:29:03.969Z,92033.15
2019-03-03T06:31:53.547Z,92031.02
2019-03-03T06:34:42.189Z,92030.09
2019-03-03T06:37:31.594Z,92033.17
2019-03-03T06:40:20.571Z,92030.48
2019-03-03T06:43:09.822Z,92037.91
2019-03-03T06:45:59.324Z,92036.79
2019-03-03T06:48:48.664Z,92035.36
2019-03-03T06:51:38.454Z,92039.73
2019-03-03T06:54:27.935Z,92038.95
2019-03-03T06:57:17.246Z,92043.37
2019-03-03T07:00:12.699Z,92040.43
2019-03-03T07:03:02.054Z,92039.48
2019-03-03T07:05:51.700Z,92043.90
2019-03-03T07:08:41.131Z,92042.63
2019-03-03T07:11:30.201Z,92046.27
2019-03-03T07:14:19.331Z,92043.17
2019-03-03T07:17:08.906Z,92043.33
2019-03-03T07:19:58.392Z,92048.95
2019-03-03T07:22:47.621Z,92048.71
2019-03-03T07:25:37.134Z,92038.89
2019-03-03T07:28:26.346Z,92038.59
2019-03-03T07:31:16.011Z,92038.05
2019-03-03T07:34:05.229Z,92038.24
2019-03-03T07:36:54.687Z,92032.23
2019-03-03T07:39:43.982Z,92034.27
2019-03-03T07:42:33.278Z,92037.75
2019-03-03T07:45:22.547Z,92037.03
2019-03-03T07:48:11.874Z,92034.02
2019-03-03T07:51:01.150Z,92034.91
2019-03-03T07:53:50.657Z,92026.33
2019-03-03T07:56:40.031Z,92028.88
2019-03-03T07:59:29.625Z,92025.28
2019-03-03T08:02:19.083Z,92030.08
2019-03-03T08:05:08.730Z,92032.68
2019-03-03T08:07:58.269Z,92035.03
2019-03-03T08:10:47.641Z,92031.73
2019-03-03T08:13:37.058Z,92028.52
2019-03-03T08:16:26.124Z,92016.72
2019-03-03T08:19:15.402Z,92020.63
2019-03-03T08:22:04.363Z,92010.48
2019-03-03T08:24:53.623Z,92013.50
2019-03-03T08:27:42.963Z,92012.33
2019-03-03T08:30:32.415Z,92006.63
2019-03-03T08:33:21.798Z,92009.77
2019-03-03T08:36:11.078Z,92007.94
2019-03-03T08:39:00.554Z,92010.24
2019-03-03T08:41:53.388Z,92009.64
2019-03-03T08:44:52.225Z,92011.64
2019-03-03T08:48:00.196Z,92006.28
2019-03-03T08:50:59.521Z,92002.77
2019-03-03T08:54:06.629Z,92008.07
2019-03-03T08:57:13.374Z,92004.09
2019-03-03T09:00:12.252Z,92006.01
2019-03-03T09:03:23.212Z,92006.73
2019-03-03T09:06:40.328Z,92005.16
2019-03-03T09:09:46.393Z,92007.23
2019-03-03T09:12:58.358Z,92017.69
2019-03-03T09:16:16.454Z,92017.86
2019-03-03T09:19:24.686Z,92014.38
2019-03-03T09:22:39.024Z,92012.13
2019-03-03T09:25:34.136Z,92006.48
2019-03-03T09:28:38.724Z,92006.85
2019-03-03T09:31:46.190Z,92012.84
2019-03-03T09:35:00.504Z,92009.56
2019-03-03T09:38:17.406Z,92010.91
2019-03-03T09:41:36.875Z,92006.25
2019-03-03T09:44:42.955Z,92007.06
2019-03-03T09:47:38.557Z,92016.19
2019-03-03T09:50:51.403Z,92013.94
2019-03-03T09:53:57.713Z,92016.55
2019-03-03T09:57:15.722Z,92014.29
2019-03-03T10:00:31.177Z,92012.79
2019-03-03T10:03:45.958Z,92012.21
2019-03-03T10:06:54.843Z,92010.16
2019-03-03T10:10:06.555Z,92002.44
2019-03-03T10:13:08.446Z,92012.38
2019-03-03T10:16:22.483Z,92007.37
2019-03-03T10:19:17.615Z,91992.19
2019-03-03T10:22:42.178Z,91999.78
2019-03-03T10:25:41.917Z,91994.99
2019-03-03T10:29:07.469Z,91995.12
2019-03-03T10:32:22.437Z,91995.45
2019-03-03T10:35:27.515Z,91991.93
2019-03-03T10:38:36.166Z,91992.16
2019-03-03T10:41:51.876Z,91992.38
2019-03-03T10:44:59.012Z,91998.13
2019-03-03T10:48:16.906Z,91999.22
2019-03-03T10:51:22.395Z,91990.98
2019-03-03T10:54:17.816Z,91997.02
2019-03-03T10:57:25.096Z,91983.49
2019-03-03T11:00:34.691Z,91983.64
2019-03-03T11:03:29.718Z,91985.89
2019-03-03T11:06:36.666Z,91994.70
2019-03-03T11:09:36.447Z,91986.58
2019-03-03T11:12:44.793Z,91985.45
2019-03-03T11:15:45.621Z,91978.44
2019-03-03T11:18:56.224Z,91985.89
2019-03-03T11:22:04.759Z,91981.19
2019-03-03T11:25:18.425Z,91981.08
2019-03-03T11:28:40.269Z,91988.84
2019-03-03T11:31:50.975Z,91974.06
2019-03-03T11:34:59.007Z,91977.82
2019-03-03T11:38:13.452Z,91982.16
2019-03-03T11:41:14.375Z,91988.94
2019-03-03T11:44:18.556Z,91982.20
2019-03-03T11:47:26.766Z,91994.88
2019-03-03T11:50:47.246Z,91975.73
2019-03-03T11:53:57.419Z,91985.11
2019-03-03T11:57:00.962Z,91969.64
2019-03-03T12:00:09.865Z,91976.27
2019-03-03T12:03:16.853Z,91973.63
2019-03-03T12:06:17.436Z,91968.47
2019-03-03T12:09:33.294Z,91966.52
2019-03-03T12:12:38.986Z,91968.41
2019-03-03T12:15:46.015Z,91980.38
2019-03-03T12:19:12.833Z,91968.23
2019-03-03T12:22:11.092Z,91965.48
2019-03-03T12:25:22.819Z,91950.24
2019-03-03T12:28:37.538Z,91959.62
2019-03-03T12:31:57.988Z,91967.80
2019-03-03T12:35:08.851Z,91957.48
2019-03-03T12:38:26.139Z,91949.33
2019-03-03T12:41:32.590Z,91956.79
2019-03-03T12:44:35.568Z,91956.08
2019-03-03T12:47:43.222Z,91945.50
2019-03-03T12:50:58.031Z,91953.11
2019-03-03T12:54:04.900Z,91947.23
2019-03-03T12:57:07.094Z,91957.50
2019-03-03T13:00:22.249Z,91950.56
2019-03-03T13:03:33.785Z,91949.41
2019-03-03T13:06:35.733Z,91959.80
2019-03-03T13:09:51.546Z,91956.94
2019-03-03T13:13:06.050Z,91952.20
2019-03-03T13:16:08.131Z,91953.00
2019-03-03T13:19:16.865Z,91953.70
2019-03-03T13:22:29.808Z,91950.55
2019-03-03T13:25:39.156Z,91956.98
2019-03-03T13:28:53.903Z,91953.23
2019-03-03T13:32:20.607Z,91958.55
2019-03-03T13:35:34.800Z,91952.09
2019-03-03T13:38:52.545Z,91952.55
2019-03-03T13:42:09.580Z,91960.94
2019-03-03T13:45:00.282Z,91960.30
2019-03-03T13:47:49.723Z,91958.27
2019-03-03T13:50:39.542Z,91978.02
2019-03-03T13:53:29.404Z,91969.48
2019-03-03T13:56:19.411Z,91974.31
2019-03-03T13:59:09.916Z,91996.52
2019-03-03T14:01:59.353Z,91985.56
2019-03-03T14:04:54.566Z,91993.22
2019-03-03T14:07:44.107Z,91986.10
2019-03-03T14:10:35.857Z,91990.52
2019-03-03T14:13:26.149Z,91985.64
2019-03-03T14:16:15.783Z,91988.71
2019-03-03T14:19:07.134Z,91992.30
2019-03-03T14:21:56.138Z,91988.94
2019-03-03T14:24:45.192Z,91983.45
2019-03-03T14:27:35.216Z,91984.81
2019-03-03T14:30:26.328Z,91976.23
2019-03-03T14:33:17.078Z,91987.59
2019-03-03T14:36:06.429Z,91981.59
2019-03-03T14:38:55.759Z,91986.20
2019-03-03T14:41:46.723Z,91991.95
2019-03-03T14:44:36.139Z,91995.00
2019-03-03T14:47:26.732Z,91988.03
2019-03-03T14:50:18.318Z,91992.72
2019-03-03T14:53:13.061Z,91984.88
2019-03-03T14:56:03.440Z,91992.11
2019-03-03T14:58:52.969Z,91989.91
2019-03-03T15:01:43.215Z,91986.17
2019-03-03T15:04:32.621Z,91993.31
2019-03-03T15:07:22.711Z,91991.81
2019-03-03T15:10:13.007Z,91985.28
2019-03-03T15:13:02.601Z,91983.81
2019-03-03T15:15:57.498Z,91979.98
2019-03-03T15:18:49.139Z,91986.05
2019-03-03T15:21:40.266Z,91984.20
2019-03-03T15:24:29.849Z,91987.41
2019-03-03T15:27:19.106Z,91986.16
2019-03-03T15:30:10.073Z,91998.84
2019-03-03T15:33:00.450Z,91999.97
2019-03-03T15:35:32.600Z,92001.66
2019-03-03T15:38:04.108Z,92001.32
2019-03-03T15:40:35.181Z,92001.67
2019-03-03T15:43:06.739Z,92006.44
2019-03-03T15:45:38.225Z,92005.20
2019-03-03T15:48:10.931Z,92005.47
2019-03-03T15:50:42.936Z,92006.73
2019-03-03T15:53:13.941Z,92007.22
2019-03-03T15:55:45.703Z,92009.16
2019-03-03T15:58:17.214Z,92009.25
2019-03-03T16:00:48.209Z,92012.70
2019-03-03T16:03:19.230Z,92008.20
2019-03-03T16:05:50.307Z,92021.10
2019-03-03T16:08:22.408Z,92018.16
2019-03-03T16:10:54.266Z,92022.75
2019-03-03T16:13:25.562Z,92023.70
2019-03-03T16:15:56.735Z,92025.16
2019-03-03T16:18:28.081Z,92027.27
2019-03-03T16:20:59.074Z,92025.84
2019-03-03T16:23:30.120Z,92029.80
2019-03-03T16:26:01.903Z,92026.57
2019-03-03T16:28:33.207Z,92033.86
2019-03-03T16:31:06.048Z,92028.82
2019-03-03T16:33:37.087Z,92038.43
2019-03-03T16:36:08.634Z,92043.47
2019-03-03T16:38:39.992Z,92037.81
2019-03-03T16:41:11.481Z,92046.90
2019-03-03T16:43:43.303Z,92050.80
2019-03-03T16:46:15.816Z,92052.55
2019-03-03T16:48:47.165Z,92050.70
2019-03-03T16:51:18.528Z,92054.98
2019-03-03T16:53:49.921Z,92048.44
2019-03-03T16:56:21.392Z,92051.75
2019-03-03T16:58:52.383Z,92056.33
2019-03-03T17:01:23.795Z,92054.52
2019-03-03T17:03:55.037Z,92058.42
2019-03-03T17:06:26.060Z,92065.05
2019-03-03T17:08:57.242Z,92059.92
2019-03-03T17:11:28.334Z,92055.38
2019-03-03T17:13:59.376Z,92071.34
2019-03-03T17:16:31.246Z,92066.58
2019-03-03T17:19:02.292Z,92067.61
2019-03-03T17:21:33.288Z,92072.64
2019-03-03T17:24:06.036Z,92073.06
2019-03-03T17:26:37.135Z,92079.59
2019-03-03T17:29:08.836Z,92079.73
2019-03-03T17:31:40.955Z,92079.91
2019-03-03T17:34:13.257Z,92086.21
2019-03-03T17:36:45.235Z,92090.91
2019-03-03T17:39:16.761Z,92091.20
2019-03-03T17:41:48.482Z,92086.19
2019-03-03T17:44:19.892Z,92087.81
2019-03-03T17:46:51.234Z,92086.98
2019-03-03T17:49:24.499Z,92091.56
2019-03-03T17:51:55.546Z,92096.83
2019-03-03T17:54:26.571Z,92094.77
2019-03-03T17:56:57.665Z,92106.27
2019-03-03T17:59:28.666Z,92104.75
2019-03-03T18:02:00.066Z,92108.24
2019-03-03T18:04:31.130Z,92109.21
2019-03-03T18:07:04.296Z,92114.21
2019-03-03T18:09:35.307Z,92110.13
2019-03-03T18:12:07.112Z,92111.36
2019-03-03T18:14:40.240Z,92110.23
2019-03-03T18:17:11.695Z,92113.92
2019-03-03T18:19:42.765Z,92113.91
2019-03-03T18:22:14.889Z,92112.28
2019-03-03T18:24:46.931Z,92112.08
2019-03-03T18:27:18.715Z,92113.81
2019-03-03T18:29:50.069Z,92117.91
2019-03-03T18:32:21.595Z,92119.95
2019-03-03T18:34:52.639Z,92120.55
2019-03-03T18:37:24.023Z,92118.21
2019-03-03T18:39:56.860Z,92114.02
2019-03-03T18:42:29.899Z,92109.52
2019-03-03T18:45:00.908Z,92110.22
2019-03-03T18:47:31.936Z,92116.05
2019-03-03T18:50:03.063Z,92114.22
2019-03-03T18:52:34.840Z,92119.33
2019-03-03T18:55:08.234Z,92111.77
2019-03-03T18:57:39.673Z,92117.69
2019-03-03T19:00:18.598Z,92121.26
2019-03-03T19:02:49.676Z,92121.52
2019-03-03T19:05:23.705Z,92118.75
2019-03-03T19:07:55.191Z,92121.19
2019-03-03T19:10:26.717Z,92119.10
2019-03-03T19:12:58.229Z,92115.68
2019-03-03T19:15:29.918Z,92109.27
2019-03-03T19:18:01.097Z,92115.50
2019-03-03T19:20:33.324Z,92118.12
2019-03-03T19:23:04.867Z,92117.41
2019-03-03T19:25:35.915Z,92116.27
2019-03-03T19:28:07.441Z,92122.25
2019-03-03T19:30:38.943Z,92119.17
2019-03-03T19:33:19.427Z,92122.46
2019-03-03T19:35:51.190Z,92119.86
2019-03-03T19:38:22.532Z,92116.84
2019-03-03T19:40:53.651Z,92116.47
2019-03-03T19:43:25.091Z,92113.36
2019-03-03T19:45:56.208Z,92116.33
2019-03-03T19:48:28.755Z,92121.63
2019-03-03T19:50:59.965Z,92122.32
2019-03-03T19:53:31.630Z,92125.34
2019-03-03T19:56:03.648Z,92120.78
2019-03-03T19:58:35.545Z,92118.46
2019-03-03T20:01:07.822Z,92118.17
2019-03-03T20:03:39.206Z,92117.13
2019-03-03T20:06:10.822Z,92112.60
2019-03-03T20:08:41.928Z,92110.36
2019-03-03T20:11:13.091Z,92108.02
2019-03-03T20:13:44.128Z,92111.45
2019-03-03T20:16:16.730Z,92107.71
2019-03-03T20:18:50.810Z,92099.77
2019-03-03T20:21:23.194Z,92110.35
2019-03-03T20:23:54.404Z,92112.11
2019-03-03T20:26:27.070Z,92107.38
2019-03-03T20:28:58.571Z,92105.50
2019-03-03T20:31:29.609Z,92108.26
2019-03-03T20:34:01.106Z,92105.73
2019-03-03T20:36:32.124Z,92112.28
2019-03-03T20:39:03.227Z,92111.34
2019-03-03T20:41:34.235Z,92106.72
2019-03-03T20:44:05.382Z,92106.72
2019-03-03T20:46:37.825Z,92109.83
2019-03-03T20:49:15.084Z,92107.07
2019-03-03T20:51:50.107Z,92108.70
2019-03-03T20:54:26.699Z,92103.52
2019-03-03T20:56:59.096Z,92107.66
2019-03-03T20:59:48.883Z,92102.80
2019-03-03T21:02:40.225Z,92101.70
2019-03-03T21:05:30.578Z,92107.63
2019-03-03T21:08:23.126Z,92103.27
2019-03-03T21:11:17.497Z,92104.19
2019-03-03T21:14:09.550Z,92110.72
2019-03-03T21:16:59.945Z,92101.88
2019-03-03T21:19:59.256Z,92102.69
2019-03-03T21:22:49.665Z,92101.77
2019-03-03T21:25:42.419Z,92101.05
2019-03-03T21:28:47.099Z,92101.94
2019-03-03T21:31:42.227Z,92096.80
2019-03-03T21:34:32.106Z,92108.16
2019-03-03T21:37:22.306Z,92105.67
2019-03-03T21:40:17.865Z,92105.02
2019-03-03T21:43:08.657Z,92097.03
2019-03-03T21:46:01.062Z,92091.09
2019-03-03T21:48:56.672Z,92088.55
2019-03-03T21:51:47.764Z,92089.64
2019-03-03T21:54:40.419Z,92076.85
2019-03-03T21:57:30.531Z,92082.91
2019-03-03T22:00:34.320Z,92075.61
2019-03-03T22:03:24.315Z,92071.94
2019-03-03T22:06:16.899Z,92066.75
2019-03-03T22:09:13.420Z,92073.84
2019-03-03T22:12:09.130Z,92068.20
2019-03-03T22:14:58.936Z,92073.60
2019-03-03T22:17:48.887Z,92075.72
2019-03-03T22:20:57.488Z,92072.20
2019-03-03T22:23:47.504Z,92073.03
2019-03-03T22:26:39.193Z,92071.94
2019-03-03T22:29:35.464Z,92071.08
2019-03-03T22:32:28.582Z,92075.33
2019-03-03T22:35:19.450Z,92068.41
2019-03-03T22:38:13.730Z,92066.27
2019-03-03T22:41:09.155Z,92074.89
2019-03-03T22:44:01.029Z,92072.50
2019-03-03T22:46:51.464Z,92070.22
2019-03-03T22:49:46.545Z,92064.85
2019-03-03T22:52:36.046Z,92061.21
2019-03-03T22:55:27.791Z,92063.14
2019-03-03T22:58:22.180Z,92060.05
2019-03-03T23:01:21.706Z,92061.72
2019-03-03T23:04:45.309Z,92058.39
2019-03-03T23:08:10.807Z,92059.92
2019-03-03T23:11:48.191Z,92054.89
2019-03-03T23:15:00.351Z,92047.12
2019-03-03T23:18:23.053Z,92044.95
2019-03-03T23:21:29.919Z,92050.59
2019-03-03T23:24:57.363Z,92052.02
2019-03-03T23:27:51.160Z,92054.03
2019-03-03T23:30:44.070Z,92048.64
2019-03-03T23:33:33.238Z,92055.03
2019-03-03T23:36:25.976Z,92061.73
2019-03-03T23:39:16.089Z,92056.57
2019-03-03T23:42:08.301Z,92063.16
2019-03-03T23:45:00.310Z,92066.63
2019-03-03T23:47:55.143Z,92065.31
2019-03-03T23:50:47.167Z,92069.16
2019-03-03T23:53:39.824Z,92078.60
2019-03-03T23:56:31.130Z,92066.27
2019-03-03T23:59:20.920Z,92062.92
